createdAt,value
2022-11-29T00:00:45.247Z,24.45
2022-11-29T00:01:47.082Z,20.38
2022-11-29T00:02:52.177Z,21.70
2022-11-29T00:03:54.874Z,19.48
2022-11-29T00:04:56.679Z,18.25
2022-11-29T00:06:11.911Z,19.40
2022-11-29T00:07:13.637Z,21.27
2022-11-29T00:08:15.348Z,21.55
2022-11-29T00:09:18.459Z,20.58
2022-11-29T00:10:20.265Z,21.40
2022-11-29T00:11:44.144Z,18.30
2022-11-29T00:12:48.742Z,20.73
2022-11-29T00:13:50.529Z,23.40
2022-11-29T00:14:53.445Z,21.27
2022-11-29T00:15:55.181Z,20.27
2022-11-29T00:17:02.052Z,21.35
2022-11-29T00:18:05.320Z,19.00
2022-11-29T00:19:08.322Z,19.73
2022-11-29T00:20:11.213Z,21.23
2022-11-29T00:21:12.946Z,20.23
2022-11-29T00:22:14.673Z,20.40
2022-11-29T00:23:16.434Z,18.52
2022-11-29T00:24:18.477Z,18.77
2022-11-29T00:25:20.354Z,22.13
2022-11-29T00:26:22.538Z,18.85
2022-11-29T00:27:24.293Z,22.65
2022-11-29T00:28:26.031Z,20.77
2022-11-29T00:29:28.084Z,20.85
2022-11-29T00:30:29.901Z,21.52
2022-11-29T00:31:33.586Z,20.38
2022-11-29T00:32:35.919Z,22.45
2022-11-29T00:33:37.768Z,23.45
2022-11-29T00:34:39.545Z,21.33
2022-11-29T00:35:41.308Z,22.70
2022-11-29T00:36:43.119Z,18.77
2022-11-29T00:37:45.587Z,21.83
2022-11-29T00:38:47.329Z,22.38
2022-11-29T00:39:49.092Z,23.80
2022-11-29T00:40:52.319Z,20.20
2022-11-29T00:41:54.100Z,21.98
2022-11-29T00:42:55.883Z,24.13
2022-11-29T00:43:57.737Z,22.02
2022-11-29T00:44:59.495Z,21.07
2022-11-29T00:46:01.316Z,23.17
2022-11-29T00:47:03.078Z,21.25
2022-11-29T00:48:05.030Z,21.88
2022-11-29T00:49:06.823Z,19.25
2022-11-29T00:50:08.780Z,20.85
2022-11-29T00:51:10.550Z,21.40
2022-11-29T00:52:12.255Z,24.60
2022-11-29T00:53:14.000Z,21.73
2022-11-29T00:54:16.353Z,24.63
2022-11-29T00:55:18.134Z,23.20
2022-11-29T00:56:19.924Z,24.70
2022-11-29T00:57:21.658Z,27.70
2022-11-29T00:58:23.774Z,28.92
2022-11-29T00:59:25.528Z,25.63
2022-11-29T01:00:27.696Z,24.08
2022-11-29T01:01:29.609Z,25.35
2022-11-29T01:02:31.525Z,25.42
2022-11-29T01:03:33.452Z,24.08
2022-11-29T01:04:35.176Z,24.83
2022-11-29T01:05:37.254Z,26.50
2022-11-29T01:06:39.125Z,24.00
2022-11-29T01:07:40.904Z,25.33
2022-11-29T01:08:43.037Z,22.23
2022-11-29T01:09:44.764Z,27.27
2022-11-29T01:10:46.690Z,27.77
2022-11-29T01:11:50.200Z,27.70
2022-11-29T01:12:51.911Z,27.45
2022-11-29T01:14:03.910Z,23.63
2022-11-29T01:15:07.662Z,27.35
2022-11-29T01:16:09.881Z,22.53
2022-11-29T01:17:11.654Z,23.88
2022-11-29T01:18:13.363Z,23.70
2022-11-29T01:19:15.134Z,22.90
2022-11-29T01:20:16.922Z,24.88
2022-11-29T01:21:22.361Z,27.25
2022-11-29T01:22:24.091Z,26.92
2022-11-29T01:23:27.119Z,26.23
2022-11-29T01:24:30.273Z,25.55
2022-11-29T01:25:32.217Z,30.27
2022-11-29T01:26:33.973Z,27.43
2022-11-29T01:27:35.884Z,27.17
2022-11-29T01:28:38.697Z,26.83
2022-11-29T01:29:40.534Z,26.27
2022-11-29T01:30:42.276Z,25.45
2022-11-29T01:31:44.077Z,31.00
2022-11-29T01:32:45.783Z,26.55
2022-11-29T01:33:47.798Z,29.92
2022-11-29T01:34:49.573Z,26.23
2022-11-29T01:35:53.506Z,24.20
2022-11-29T01:36:55.219Z,23.37
2022-11-29T01:37:57.370Z,29.02
2022-11-29T01:39:03.761Z,28.20
2022-11-29T01:40:06.343Z,28.63
2022-11-29T01:41:17.815Z,24.55
2022-11-29T01:42:19.551Z,26.83
2022-11-29T01:43:23.072Z,34.20
2022-11-29T01:44:25.030Z,25.73
2022-11-29T01:45:27.154Z,26.98
2022-11-29T01:46:34.586Z,25.60
2022-11-29T01:47:40.711Z,26.27
2022-11-29T01:48:42.417Z,28.83
2022-11-29T01:49:50.100Z,31.85
2022-11-29T01:50:55.174Z,29.48
2022-11-29T01:52:02.680Z,26.33
2022-11-29T01:53:05.106Z,31.50
2022-11-29T01:54:08.113Z,30.23
2022-11-29T01:55:10.161Z,28.13
2022-11-29T01:56:14.812Z,30.85
2022-11-29T01:57:18.292Z,30.67
2022-11-29T01:58:20.824Z,31.13
2022-11-29T01:59:24.987Z,26.63
2022-11-29T02:00:26.702Z,30.33
2022-11-29T02:01:28.672Z,29.95
2022-11-29T02:02:38.360Z,31.17
2022-11-29T02:03:40.262Z,29.63
2022-11-29T02:04:45.461Z,30.10
2022-11-29T02:05:51.769Z,30.40
2022-11-29T02:06:53.540Z,28.80
2022-11-29T02:07:57.602Z,32.00
2022-11-29T02:08:59.439Z,31.50
2022-11-29T02:10:02.354Z,31.80
2022-11-29T02:11:32.057Z,28.45
2022-11-29T02:12:58.643Z,29.23
2022-11-29T02:14:15.279Z,27.98
2022-11-29T02:15:32.116Z,30.15
2022-11-29T02:16:59.752Z,31.80
2022-11-29T02:18:09.783Z,30.55
2022-11-29T02:19:41.791Z,33.75
2022-11-29T02:21:02.035Z,30.83
2022-11-29T02:22:22.024Z,35.30
2022-11-29T02:24:05.193Z,33.95
2022-11-29T02:25:21.841Z,31.27
2022-11-29T02:26:57.081Z,30.58
2022-11-29T02:28:26.140Z,30.92
2022-11-29T02:30:05.491Z,30.85
2022-11-29T02:31:44.847Z,28.98
2022-11-29T02:32:52.393Z,30.30
2022-11-29T02:34:03.050Z,30.95
2022-11-29T02:35:32.007Z,31.25
2022-11-29T02:37:35.244Z,29.37
2022-11-29T02:38:55.264Z,34.43
2022-11-29T02:40:35.347Z,33.30
2022-11-29T02:41:55.945Z,27.98
2022-11-29T02:43:37.468Z,34.05
2022-11-29T02:44:54.199Z,30.70
2022-11-29T02:46:33.191Z,36.83
2022-11-29T02:47:43.857Z,35.78
2022-11-29T02:49:03.003Z,32.47
2022-11-29T02:50:24.521Z,32.13
2022-11-29T02:51:48.257Z,32.23
2022-11-29T02:53:06.230Z,34.60
2022-11-29T02:54:26.727Z,31.17
2022-11-29T02:56:03.538Z,29.50
2022-11-29T02:57:28.288Z,30.90
2022-11-29T02:58:45.677Z,36.97
2022-11-29T03:00:05.439Z,34.47
2022-11-29T03:01:24.371Z,35.97
2022-11-29T03:02:59.655Z,32.63
2022-11-29T03:04:21.580Z,34.78
2022-11-29T03:05:55.292Z,28.97
2022-11-29T03:07:25.259Z,30.77
2022-11-29T03:08:54.415Z,33.67
2022-11-29T03:10:18.939Z,32.45
2022-11-29T03:11:44.371Z,33.25
2022-11-29T03:12:49.469Z,32.97
2022-11-29T03:14:20.157Z,29.85
2022-11-29T03:15:21.939Z,35.65
2022-11-29T03:16:43.928Z,36.65
2022-11-29T03:18:20.430Z,33.20
2022-11-29T03:19:51.116Z,31.10
2022-11-29T03:21:07.864Z,31.27
2022-11-29T03:22:12.606Z,29.42
2022-11-29T03:23:45.374Z,34.22
2022-11-29T03:25:08.614Z,34.50
2022-11-29T03:26:38.078Z,31.77
2022-11-29T03:28:06.477Z,29.80
2022-11-29T03:29:08.232Z,30.65
2022-11-29T03:30:14.030Z,32.10
2022-11-29T03:31:38.792Z,37.05
2022-11-29T03:32:52.816Z,35.67
2022-11-29T03:34:31.209Z,33.67
2022-11-29T03:35:37.530Z,31.65
2022-11-29T03:36:42.303Z,36.30
2022-11-29T03:37:48.388Z,35.13
2022-11-29T03:38:55.054Z,37.75
2022-11-29T03:40:09.037Z,39.45
2022-11-29T03:41:38.121Z,36.67
2022-11-29T03:42:58.149Z,34.40
2022-11-29T03:44:17.622Z,31.65
2022-11-29T03:45:45.432Z,38.43
2022-11-29T03:47:04.699Z,36.00
2022-11-29T03:48:23.586Z,38.45
2022-11-29T03:49:42.569Z,34.83
2022-11-29T03:51:18.967Z,41.22
2022-11-29T03:52:30.803Z,36.13
2022-11-29T03:53:39.654Z,34.92
2022-11-29T03:54:53.985Z,38.67
2022-11-29T03:56:01.182Z,39.05
2022-11-29T03:57:03.482Z,40.03
2022-11-29T03:58:28.382Z,36.43
2022-11-29T04:00:02.604Z,40.33
2022-11-29T04:01:22.800Z,34.65
2022-11-29T04:03:05.540Z,38.28
2022-11-29T04:04:31.781Z,35.05
2022-11-29T04:05:50.415Z,38.42
2022-11-29T04:07:01.053Z,38.28
2022-11-29T04:08:39.572Z,38.35
2022-11-29T04:10:22.474Z,38.35
2022-11-29T04:11:54.952Z,38.42
2022-11-29T04:13:48.078Z,35.00
2022-11-29T04:15:19.525Z,34.20
2022-11-29T04:16:59.939Z,34.58
2022-11-29T04:18:39.301Z,38.45
2022-11-29T04:20:20.068Z,38.72
2022-11-29T04:21:47.758Z,42.47
2022-11-29T04:23:14.445Z,36.38
2022-11-29T04:24:39.064Z,36.97
2022-11-29T04:26:05.356Z,35.60
2022-11-29T04:27:45.741Z,36.83
2022-11-29T04:29:06.075Z,37.27
2022-11-29T04:30:20.456Z,34.35
2022-11-29T04:31:29.002Z,41.83
2022-11-29T04:33:00.123Z,36.42
2022-11-29T04:34:28.936Z,37.97
2022-11-29T04:36:27.432Z,34.75
2022-11-29T04:38:00.954Z,36.90
2022-11-29T04:39:23.559Z,35.53
2022-11-29T04:40:43.122Z,36.83
2022-11-29T04:42:17.073Z,35.03
2022-11-29T04:43:50.558Z,38.73
2022-11-29T04:45:14.115Z,38.20
2022-11-29T04:46:45.900Z,38.40
2022-11-29T04:48:10.598Z,37.10
2022-11-29T04:49:37.335Z,38.38
2022-11-29T04:51:07.991Z,33.88
2022-11-29T04:52:25.086Z,33.75
2022-11-29T04:53:38.428Z,30.75
2022-11-29T04:54:59.870Z,38.05
2022-11-29T04:56:25.474Z,35.80
2022-11-29T04:57:39.099Z,34.10
2022-11-29T04:59:03.539Z,38.45
2022-11-29T05:00:09.636Z,36.17
2022-11-29T05:01:27.926Z,34.00
2022-11-29T05:03:14.209Z,37.42
2022-11-29T05:04:40.922Z,34.17
2022-11-29T05:05:57.275Z,35.92
2022-11-29T05:07:34.040Z,32.90
2022-11-29T05:09:24.415Z,36.75
2022-11-29T05:10:33.286Z,40.47
2022-11-29T05:11:42.887Z,34.63
2022-11-29T05:13:20.742Z,34.90
2022-11-29T05:15:04.209Z,33.33
2022-11-29T05:16:53.745Z,36.95
2022-11-29T05:18:28.456Z,30.85
2022-11-29T05:19:45.010Z,30.85
2022-11-29T05:21:29.966Z,35.42
2022-11-29T05:23:11.889Z,29.00
2022-11-29T05:24:41.286Z,32.35
2022-11-29T05:25:57.999Z,35.47
2022-11-29T05:27:02.337Z,36.37
2022-11-29T05:28:20.419Z,39.05
2022-11-29T05:29:40.237Z,35.65
2022-11-29T05:31:08.432Z,35.33
2022-11-29T05:32:19.210Z,32.78
2022-11-29T05:33:45.195Z,33.42
2022-11-29T05:35:24.783Z,34.90
2022-11-29T05:37:06.828Z,37.83
2022-11-29T05:38:33.421Z,40.10
2022-11-29T05:39:53.212Z,34.67
2022-11-29T05:41:15.941Z,33.47
2022-11-29T05:42:37.028Z,34.83
2022-11-29T05:43:50.458Z,29.50
2022-11-29T05:44:59.322Z,35.70
2022-11-29T05:46:12.815Z,33.30
2022-11-29T05:47:35.282Z,33.20
2022-11-29T05:49:04.567Z,32.58
2022-11-29T05:50:17.983Z,32.65
2022-11-29T05:51:41.246Z,33.92
2022-11-29T05:53:12.145Z,30.80
2022-11-29T05:54:33.769Z,33.63
2022-11-29T05:55:35.447Z,29.55
2022-11-29T05:56:57.177Z,30.92
2022-11-29T05:58:44.703Z,32.53
2022-11-29T05:59:48.559Z,29.38
2022-11-29T06:00:59.411Z,29.70
2022-11-29T06:02:29.401Z,30.85
2022-11-29T06:03:40.845Z,29.88
2022-11-29T06:05:13.762Z,32.97
2022-11-29T06:06:39.671Z,31.05
2022-11-29T06:08:10.564Z,31.70
2022-11-29T06:09:22.928Z,33.30
2022-11-29T06:10:28.550Z,32.50
2022-11-29T06:11:46.093Z,31.60
2022-11-29T06:13:06.674Z,30.42
2022-11-29T06:14:25.587Z,31.33
2022-11-29T06:15:56.660Z,28.77
2022-11-29T06:17:18.279Z,30.67
2022-11-29T06:18:44.543Z,31.75
2022-11-29T06:20:04.238Z,30.52
2022-11-29T06:21:20.261Z,26.30
2022-11-29T06:22:48.997Z,31.25
2022-11-29T06:23:50.743Z,28.88
2022-11-29T06:25:18.725Z,29.98
2022-11-29T06:26:35.375Z,32.60
2022-11-29T06:27:45.465Z,30.65
2022-11-29T06:28:58.764Z,29.42
2022-11-29T06:30:22.855Z,32.85
2022-11-29T06:31:38.125Z,25.15
2022-11-29T06:32:47.626Z,30.67
2022-11-29T06:34:15.467Z,29.63
2022-11-29T06:35:39.095Z,27.05
2022-11-29T06:36:50.745Z,23.05
2022-11-29T06:37:58.306Z,27.02
2022-11-29T06:39:00.278Z,28.23
2022-11-29T06:40:02.290Z,27.05
2022-11-29T06:41:04.533Z,24.92
2022-11-29T06:42:06.269Z,26.10
2022-11-29T06:43:08.246Z,29.27
2022-11-29T06:44:10.986Z,26.98
2022-11-29T06:45:14.215Z,21.53
2022-11-29T06:46:39.674Z,28.98
2022-11-29T06:47:46.353Z,30.98
2022-11-29T06:49:03.821Z,28.63
2022-11-29T06:50:08.812Z,28.23
2022-11-29T06:51:27.390Z,22.10
2022-11-29T06:52:58.409Z,27.92
2022-11-29T06:54:27.588Z,26.42
2022-11-29T06:55:42.884Z,29.17
2022-11-29T06:57:30.039Z,30.15
2022-11-29T06:59:13.291Z,24.97
2022-11-29T07:00:26.941Z,26.50
2022-11-29T07:01:47.271Z,29.70
2022-11-29T07:03:16.988Z,24.67
2022-11-29T07:04:56.763Z,27.20
2022-11-29T07:05:58.819Z,27.38
2022-11-29T07:07:00.882Z,27.00
2022-11-29T07:08:06.263Z,29.00
2022-11-29T07:09:15.302Z,29.35
2022-11-29T07:10:19.184Z,27.83
2022-11-29T07:11:21.167Z,30.87
2022-11-29T07:12:23.260Z,31.15
2022-11-29T07:13:25.276Z,29.95
2022-11-29T07:14:27.393Z,28.27
2022-11-29T07:15:29.562Z,29.77
2022-11-29T07:16:46.686Z,31.35
2022-11-29T07:18:03.281Z,31.38
2022-11-29T07:19:23.545Z,26.00
2022-11-29T07:20:51.156Z,27.25
2022-11-29T07:22:01.672Z,28.77
2022-11-29T07:23:24.463Z,26.63
2022-11-29T07:24:41.391Z,24.63
2022-11-29T07:26:15.197Z,23.35
2022-11-29T07:27:35.535Z,28.25
2022-11-29T07:29:05.023Z,28.02
2022-11-29T07:30:33.873Z,29.83
2022-11-29T07:31:58.146Z,27.08
2022-11-29T07:33:08.527Z,31.25
2022-11-29T07:34:51.679Z,25.92
2022-11-29T07:36:03.095Z,31.38
2022-11-29T07:37:32.151Z,29.73
2022-11-29T07:38:45.680Z,26.40
2022-11-29T07:39:57.884Z,29.63
2022-11-29T07:41:14.624Z,28.05
2022-11-29T07:42:54.013Z,28.90
2022-11-29T07:44:08.360Z,32.90
2022-11-29T07:45:31.847Z,27.80
2022-11-29T07:46:33.661Z,30.50
2022-11-29T07:47:36.144Z,30.20
2022-11-29T07:48:38.058Z,32.20
2022-11-29T07:49:39.857Z,27.17
2022-11-29T07:50:41.697Z,30.25
2022-11-29T07:51:43.555Z,26.85
2022-11-29T07:52:45.658Z,26.27
2022-11-29T07:53:47.531Z,27.30
2022-11-29T07:54:49.296Z,29.35
2022-11-29T07:55:51.450Z,31.60
2022-11-29T07:56:53.230Z,29.35
2022-11-29T07:57:55.179Z,27.25
2022-11-29T07:58:56.980Z,26.67
2022-11-29T07:59:58.822Z,23.63
2022-11-29T08:01:00.693Z,26.23
2022-11-29T08:02:05.503Z,28.52
2022-11-29T08:03:11.080Z,25.70
2022-11-29T08:04:13.760Z,27.13
2022-11-29T08:05:15.812Z,27.27
2022-11-29T08:06:24.428Z,30.08
2022-11-29T08:07:26.220Z,30.42
2022-11-29T08:08:28.353Z,29.52
2022-11-29T08:09:30.137Z,27.90
2022-11-29T08:10:32.174Z,29.80
2022-11-29T08:11:33.951Z,27.95
2022-11-29T08:12:35.695Z,26.65
2022-11-29T08:13:37.582Z,30.40
2022-11-29T08:14:39.321Z,36.10
2022-11-29T08:15:45.437Z,27.80
2022-11-29T08:16:47.251Z,45.03
2022-11-29T08:17:49.503Z,36.25
2022-11-29T08:18:53.702Z,30.83
2022-11-29T08:19:57.996Z,29.27
2022-11-29T08:21:07.275Z,26.50
2022-11-29T08:22:09.039Z,33.30
2022-11-29T08:23:12.705Z,26.63
2022-11-29T08:24:14.463Z,26.13
2022-11-29T08:25:16.355Z,26.73
2022-11-29T08:26:19.351Z,30.85
2022-11-29T08:27:21.115Z,28.77
2022-11-29T08:28:23.285Z,26.77
2022-11-29T08:29:25.303Z,24.35
2022-11-29T08:30:27.073Z,24.25
2022-11-29T08:31:28.859Z,26.53
2022-11-29T08:32:30.749Z,29.43
2022-11-29T08:33:35.561Z,25.52
2022-11-29T08:34:37.366Z,28.27
2022-11-29T08:35:39.904Z,21.20
2022-11-29T08:36:41.633Z,26.83
2022-11-29T08:37:43.476Z,25.63
2022-11-29T08:38:46.152Z,24.73
2022-11-29T08:39:48.050Z,21.95
2022-11-29T08:40:49.872Z,29.00
2022-11-29T08:41:51.695Z,24.20
2022-11-29T08:42:58.093Z,22.50
2022-11-29T08:43:59.939Z,25.05
2022-11-29T08:45:01.754Z,25.48
2022-11-29T08:46:03.977Z,24.08
2022-11-29T08:47:24.542Z,23.52
2022-11-29T08:48:26.876Z,25.27
2022-11-29T08:49:28.620Z,22.70
2022-11-29T08:50:30.380Z,23.20
2022-11-29T08:51:32.118Z,22.95
2022-11-29T08:52:57.434Z,19.80
2022-11-29T08:54:01.509Z,22.83
2022-11-29T08:55:03.539Z,22.88
2022-11-29T08:56:31.709Z,23.58
2022-11-29T08:57:43.175Z,23.00
2022-11-29T08:58:45.736Z,25.67
2022-11-29T08:59:47.434Z,22.20
2022-11-29T09:00:49.921Z,23.90
2022-11-29T09:01:51.788Z,24.40
2022-11-29T09:02:53.598Z,19.90
2022-11-29T09:04:06.389Z,21.13
2022-11-29T09:05:08.770Z,21.67
2022-11-29T09:06:13.741Z,20.95
2022-11-29T09:07:16.586Z,23.77
2022-11-29T09:08:18.658Z,25.13
2022-11-29T09:09:20.505Z,22.38
2022-11-29T09:10:22.275Z,20.92
2022-11-29T09:11:25.595Z,20.67
2022-11-29T09:12:27.305Z,24.58
2022-11-29T09:13:29.016Z,19.88
2022-11-29T09:14:30.940Z,18.90
2022-11-29T09:15:32.685Z,22.02
2022-11-29T09:16:37.402Z,19.50
2022-11-29T09:17:39.136Z,23.60
2022-11-29T09:18:43.144Z,19.95
2022-11-29T09:19:46.538Z,21.95
2022-11-29T09:20:48.253Z,22.15
2022-11-29T09:21:50.008Z,21.38
2022-11-29T09:22:51.779Z,20.55
2022-11-29T09:23:58.725Z,19.85
2022-11-29T09:25:00.493Z,20.93
2022-11-29T09:26:02.395Z,19.70
2022-11-29T09:27:04.472Z,22.95
2022-11-29T09:28:06.857Z,20.70
2022-11-29T09:29:09.209Z,17.30
2022-11-29T09:30:11.482Z,21.35
2022-11-29T09:31:15.374Z,20.33
2022-11-29T09:32:17.134Z,21.85
2022-11-29T09:33:19.164Z,21.42
2022-11-29T09:34:20.894Z,20.10
2022-11-29T09:35:22.674Z,20.30
2022-11-29T09:36:28.763Z,20.27
2022-11-29T09:37:30.778Z,25.77
2022-11-29T09:38:33.613Z,23.35
2022-11-29T09:39:35.430Z,19.05
2022-11-29T09:40:57.510Z,22.42
2022-11-29T09:42:23.490Z,16.55
2022-11-29T09:43:40.459Z,18.75
2022-11-29T09:45:09.374Z,23.35
2022-11-29T09:46:43.318Z,23.83
2022-11-29T09:47:51.127Z,19.87
2022-11-29T09:49:02.880Z,19.83
2022-11-29T09:50:21.864Z,19.13
2022-11-29T09:51:31.453Z,18.88
2022-11-29T09:53:03.995Z,19.08
2022-11-29T09:54:24.245Z,16.95
2022-11-29T09:55:43.178Z,15.77
2022-11-29T09:56:48.918Z,17.60
2022-11-29T09:57:53.322Z,18.77
2022-11-29T09:59:09.711Z,18.65
2022-11-29T10:00:17.865Z,18.30
2022-11-29T10:01:32.345Z,20.23
2022-11-29T10:02:45.407Z,21.33
2022-11-29T10:03:52.643Z,18.65
2022-11-29T10:05:00.199Z,18.55
2022-11-29T10:06:24.954Z,16.38
2022-11-29T10:07:35.225Z,18.38
2022-11-29T10:08:44.160Z,17.17
2022-11-29T10:10:23.680Z,19.52
2022-11-29T10:11:52.235Z,17.85
2022-11-29T10:13:07.287Z,19.00
2022-11-29T10:14:21.340Z,16.90
2022-11-29T10:15:29.135Z,18.08
2022-11-29T10:16:31.692Z,19.13
2022-11-29T10:18:14.964Z,19.15
2022-11-29T10:19:33.264Z,16.73
2022-11-29T10:20:41.548Z,16.45
2022-11-29T10:21:57.208Z,17.88
2022-11-29T10:23:17.449Z,15.60
2022-11-29T10:24:22.171Z,16.60
2022-11-29T10:25:31.543Z,17.70
2022-11-29T10:26:35.308Z,13.87
2022-11-29T10:27:40.502Z,14.30
2022-11-29T10:28:45.114Z,17.95
2022-11-29T10:29:50.281Z,21.80
2022-11-29T10:30:56.900Z,20.90
2022-11-29T10:32:10.066Z,20.63
2022-11-29T10:33:21.876Z,17.58
2022-11-29T10:34:25.811Z,19.55
2022-11-29T10:35:29.421Z,18.55
2022-11-29T10:36:50.864Z,17.17
2022-11-29T10:38:29.000Z,16.77
2022-11-29T10:39:45.990Z,17.13
2022-11-29T10:40:54.313Z,18.65
2022-11-29T10:41:59.663Z,16.38
2022-11-29T10:43:02.333Z,33.45
2022-11-29T10:44:04.160Z,22.67
2022-11-29T10:45:30.583Z,20.05
2022-11-29T10:46:36.587Z,23.67
2022-11-29T10:47:38.427Z,23.15
2022-11-29T10:48:40.225Z,20.07
2022-11-29T10:49:42.686Z,19.87
2022-11-29T10:50:47.004Z,19.80
2022-11-29T10:51:48.768Z,14.43
2022-11-29T10:52:51.502Z,17.33
2022-11-29T10:53:56.641Z,17.02
2022-11-29T10:54:59.436Z,18.35
2022-11-29T10:56:24.317Z,17.58
2022-11-29T10:57:26.407Z,17.77
2022-11-29T10:58:30.042Z,17.05
2022-11-29T10:59:33.125Z,17.10
2022-11-29T11:01:08.384Z,20.33
2022-11-29T11:02:20.150Z,18.85
2022-11-29T11:03:52.949Z,18.38
2022-11-29T11:04:55.287Z,16.30
2022-11-29T11:06:01.439Z,17.75
2022-11-29T11:07:06.162Z,19.50
2022-11-29T11:08:17.451Z,21.40
2022-11-29T11:09:27.295Z,19.42
2022-11-29T11:10:30.798Z,20.00
2022-11-29T11:11:33.497Z,20.47
2022-11-29T11:12:37.261Z,20.63
2022-11-29T11:13:40.859Z,20.25
2022-11-29T11:14:44.431Z,19.77
2022-11-29T11:15:46.651Z,18.92
2022-11-29T11:16:48.602Z,21.25
2022-11-29T11:18:04.904Z,19.73
2022-11-29T11:19:29.532Z,22.33
2022-11-29T11:20:35.155Z,21.00
2022-11-29T11:21:39.048Z,19.60
2022-11-29T11:22:41.159Z,18.83
2022-11-29T11:23:57.082Z,20.33
2022-11-29T11:25:00.349Z,17.20
2022-11-29T11:26:08.925Z,22.98
2022-11-29T11:27:10.709Z,18.45
2022-11-29T11:28:36.191Z,20.23
2022-11-29T11:29:42.272Z,24.35
2022-11-29T11:31:01.396Z,22.33
2022-11-29T11:32:04.850Z,20.50
2022-11-29T11:33:25.887Z,19.60
2022-11-29T11:34:36.814Z,21.40
2022-11-29T11:35:38.729Z,20.23
2022-11-29T11:36:40.451Z,19.35
2022-11-29T11:37:42.220Z,21.45
2022-11-29T11:38:51.607Z,21.08
2022-11-29T11:39:59.763Z,19.77
2022-11-29T11:42:03.047Z,20.60
2022-11-29T11:43:05.561Z,21.25
2022-11-29T11:45:53.008Z,23.75
2022-11-29T11:46:55.119Z,19.63
2022-11-29T11:47:59.744Z,23.00
2022-11-29T11:49:01.596Z,23.27
2022-11-29T11:50:06.865Z,22.73
2022-11-29T11:51:21.484Z,21.75
2022-11-29T11:52:39.853Z,24.20
2022-11-29T11:53:44.222Z,24.88
2022-11-29T11:54:54.587Z,24.05
2022-11-29T11:56:12.327Z,21.13
2022-11-29T11:57:18.778Z,22.00
2022-11-29T11:58:29.321Z,23.77
2022-11-29T11:59:31.112Z,22.13
2022-11-29T12:01:03.867Z,21.60
2022-11-29T12:02:29.393Z,22.42
2022-11-29T12:03:52.672Z,17.88
2022-11-29T12:05:00.671Z,21.38
2022-11-29T12:06:35.259Z,23.98
2022-11-29T12:08:09.333Z,20.83
2022-11-29T12:09:27.551Z,25.20
2022-11-29T12:10:34.745Z,25.48
2022-11-29T12:12:17.583Z,20.20
2022-11-29T12:13:25.591Z,23.30
2022-11-29T12:14:39.539Z,23.08
2022-11-29T12:15:44.968Z,22.15
2022-11-29T12:16:50.078Z,19.30
2022-11-29T12:18:08.496Z,24.10
2022-11-29T12:19:23.429Z,25.05
2022-11-29T12:20:55.980Z,24.08
2022-11-29T12:22:01.754Z,30.00
2022-11-29T12:23:35.346Z,37.40
2022-11-29T12:24:46.983Z,29.07
2022-11-29T12:25:48.979Z,31.23
2022-11-29T12:26:57.658Z,32.70
2022-11-29T12:28:00.304Z,29.17
2022-11-29T12:29:02.096Z,28.55
2022-11-29T12:30:13.366Z,24.70
2022-11-29T12:31:33.798Z,25.65
2022-11-29T12:32:46.985Z,25.83
2022-11-29T12:34:13.659Z,27.17
2022-11-29T12:35:30.379Z,27.33
2022-11-29T12:36:59.707Z,23.97
2022-11-29T12:38:18.194Z,31.23
2022-11-29T12:39:52.568Z,26.25
2022-11-29T12:40:54.214Z,27.90
2022-11-29T12:42:08.118Z,24.52
2022-11-29T12:43:46.642Z,28.10
2022-11-29T12:44:57.033Z,24.13
2022-11-29T12:46:20.493Z,24.88
2022-11-29T12:47:36.073Z,25.05
2022-11-29T12:48:57.188Z,28.73
2022-11-29T12:50:23.965Z,24.07
2022-11-29T12:51:30.749Z,27.37
2022-11-29T12:52:55.288Z,25.77
2022-11-29T12:54:31.969Z,26.30
2022-11-29T12:56:14.831Z,24.33
2022-11-29T12:57:35.250Z,26.30
2022-11-29T12:58:48.560Z,22.90
2022-11-29T13:00:01.199Z,23.75
2022-11-29T13:01:21.183Z,23.75
2022-11-29T13:02:34.986Z,26.73
2022-11-29T13:03:52.187Z,28.47
2022-11-29T13:05:12.116Z,25.75
2022-11-29T13:06:39.055Z,32.47
2022-11-29T13:08:10.159Z,23.20
2022-11-29T13:09:40.031Z,29.85
2022-11-29T13:10:56.138Z,27.35
2022-11-29T13:12:00.818Z,28.38
2022-11-29T13:13:29.163Z,26.65
2022-11-29T13:14:55.341Z,23.98
2022-11-29T13:16:05.847Z,23.80
2022-11-29T13:17:19.035Z,23.13
2022-11-29T13:18:49.827Z,26.80
2022-11-29T13:20:01.905Z,26.80
2022-11-29T13:21:26.384Z,23.58
2022-11-29T13:22:54.147Z,26.55
2022-11-29T13:24:10.970Z,21.15
2022-11-29T13:25:16.863Z,24.77
2022-11-29T13:26:20.155Z,23.77
2022-11-29T13:27:24.616Z,24.80
2022-11-29T13:28:33.250Z,27.17
2022-11-29T13:29:35.375Z,24.70
2022-11-29T13:30:39.122Z,22.20
2022-11-29T13:31:41.601Z,23.80
2022-11-29T13:33:07.342Z,23.00
2022-11-29T13:34:23.812Z,23.10
2022-11-29T13:36:06.486Z,29.45
2022-11-29T13:37:18.911Z,23.08
2022-11-29T13:38:26.553Z,22.92
2022-11-29T13:39:28.229Z,22.60
2022-11-29T13:40:40.277Z,25.77
2022-11-29T13:42:03.528Z,23.93
2022-11-29T13:43:18.944Z,21.48
2022-11-29T13:44:35.665Z,24.48
2022-11-29T13:45:44.353Z,26.58
2022-11-29T13:47:09.084Z,25.58
2022-11-29T13:48:36.096Z,24.30
2022-11-29T13:50:02.655Z,29.10
2022-11-29T13:51:34.072Z,26.98
2022-11-29T13:52:41.439Z,25.73
2022-11-29T13:53:48.923Z,24.73
2022-11-29T13:55:15.396Z,30.37
2022-11-29T13:56:33.421Z,26.27
2022-11-29T13:58:19.481Z,25.00
2022-11-29T13:59:32.333Z,30.80
2022-11-29T14:00:37.671Z,23.08
2022-11-29T14:01:53.980Z,26.23
2022-11-29T14:02:57.381Z,24.83
2022-11-29T14:04:14.132Z,25.85
2022-11-29T14:05:28.173Z,23.85
2022-11-29T14:06:34.018Z,27.17
2022-11-29T14:07:55.783Z,30.23
2022-11-29T14:10:29.015Z,28.30
2022-11-29T14:12:03.109Z,27.63
2022-11-29T14:13:10.120Z,31.20
2022-11-29T14:14:49.498Z,30.60
2022-11-29T14:15:58.400Z,34.17
2022-11-29T14:17:06.004Z,30.40
2022-11-29T14:18:36.828Z,30.95
2022-11-29T14:19:38.569Z,31.67
2022-11-29T14:20:41.135Z,34.00
2022-11-29T14:22:06.928Z,27.73
2022-11-29T14:23:08.677Z,28.42
2022-11-29T14:24:32.258Z,28.65
2022-11-29T14:26:03.165Z,31.65
2022-11-29T14:27:07.836Z,29.13
2022-11-29T14:28:15.402Z,30.20
2022-11-29T14:29:48.838Z,28.45
2022-11-29T14:31:16.867Z,34.75
2022-11-29T14:32:28.432Z,35.55
2022-11-29T14:33:57.992Z,32.10
2022-11-29T14:35:11.588Z,32.83
2022-11-29T14:36:35.002Z,32.97
2022-11-29T14:37:53.166Z,30.25
2022-11-29T14:39:22.628Z,30.88
2022-11-29T14:40:41.567Z,28.08
2022-11-29T14:42:01.048Z,30.77
2022-11-29T14:43:14.791Z,29.50
2022-11-29T14:44:28.117Z,32.90
2022-11-29T14:45:33.387Z,32.08
2022-11-29T14:46:35.723Z,31.90
2022-11-29T14:47:48.462Z,31.00
2022-11-29T14:48:55.955Z,28.17
2022-11-29T14:50:00.267Z,35.70
2022-11-29T14:51:33.405Z,31.20
2022-11-29T14:52:40.729Z,27.60
2022-11-29T14:53:44.899Z,31.05
2022-11-29T14:55:11.216Z,33.75
2022-11-29T14:56:42.585Z,26.92
2022-11-29T14:57:47.613Z,29.40
2022-11-29T14:59:28.017Z,28.13
2022-11-29T15:00:36.340Z,28.33
2022-11-29T15:01:44.912Z,27.42
2022-11-29T15:03:13.192Z,30.55
2022-11-29T15:04:15.568Z,28.00
2022-11-29T15:05:32.123Z,30.83
2022-11-29T15:06:43.298Z,26.63
2022-11-29T15:08:25.742Z,28.15
2022-11-29T15:09:29.109Z,28.45
2022-11-29T15:10:36.419Z,28.08
2022-11-29T15:11:59.422Z,27.73
2022-11-29T15:13:02.792Z,33.67
2022-11-29T15:14:12.498Z,29.95
2022-11-29T15:15:55.845Z,26.42
2022-11-29T15:17:22.791Z,30.45
2022-11-29T15:18:53.964Z,28.50
2022-11-29T15:20:22.772Z,28.00
2022-11-29T15:21:33.430Z,26.25
2022-11-29T15:22:47.986Z,28.73
2022-11-29T15:24:10.845Z,27.60
2022-11-29T15:25:19.021Z,31.37
2022-11-29T15:26:21.602Z,28.65
2022-11-29T15:27:24.306Z,27.02
2022-11-29T15:28:28.851Z,26.95
2022-11-29T15:29:31.626Z,29.02
2022-11-29T15:30:39.138Z,31.83
2022-11-29T15:31:45.866Z,25.38
2022-11-29T15:32:47.935Z,27.10
2022-11-29T15:33:50.497Z,28.00
2022-11-29T15:34:55.006Z,25.25
2022-11-29T15:36:08.098Z,29.90
2022-11-29T15:37:23.921Z,27.33
2022-11-29T15:38:26.050Z,30.90
2022-11-29T15:39:34.692Z,27.33
2022-11-29T15:40:41.193Z,31.85
2022-11-29T15:41:43.021Z,31.58
2022-11-29T15:42:57.867Z,27.08
2022-11-29T15:44:03.807Z,32.35
2022-11-29T15:45:26.702Z,29.38
2022-11-29T15:46:30.761Z,27.33
2022-11-29T15:47:32.485Z,28.00
2022-11-29T15:48:34.261Z,25.98
2022-11-29T15:49:36.061Z,29.00